Time;durP1;ratioP1;P1;durP2;ratioP2;P2;SDS_P1;SDS_P2;PMS_P1;PMS_P2;Temp;Humidity;BMP_temperature;BMP_pressure;BME280_temperature;BME280_humidity;BME280_pressure;Samples;Min_cycle;Max_cycle;Signal;HPM_P1;HPM_P2
2023/06/14 00:01:55;;;;;;;0.30;0.30;;;17.80;84.60;;;;;;5095535;28;20044;-70
2023/06/14 00:04:21;;;;;;;0.57;0.40;;;17.80;86.30;;;;;;5095353;28;20079;-69
2023/06/14 00:06:48;;;;;;;0.60;0.60;;;17.70;86.60;;;;;;5095640;28;20044;-70
2023/06/14 00:09:14;;;;;;;;;;;17.70;86.50;;;;;;5094709;28;20040;-70
2023/06/14 00:11:41;;;;;;;0.60;0.60;;;17.70;86.50;;;;;;5095488;28;20277;-70
2023/06/14 00:14:08;;;;;;;;;;;17.60;86.70;;;;;;5095797;28;20122;-70
2023/06/14 00:16:35;;;;;;;0.50;0.50;;;17.50;87.60;;;;;;5095247;28;20340;-69
2023/06/14 00:19:03;;;;;;;0.40;0.40;;;17.50;87.20;;;;;;5095335;28;20079;-70
2023/06/14 00:21:29;;;;;;;0.40;0.40;;;17.40;87.80;;;;;;5095221;28;20081;-69
2023/06/14 00:23:56;;;;;;;0.50;0.50;;;17.30;87.50;;;;;;5095210;28;20043;-69
2023/06/14 00:26:21;;;;;;;0.40;0.40;;;17.30;87.30;;;;;;5095223;28;20082;-70
2023/06/14 00:28:47;;;;;;;0.40;0.40;;;17.20;88.30;;;;;;5094502;28;20454;-70
2023/06/14 00:31:12;;;;;;;0.40;0.40;;;17.10;89.10;;;;;;5095026;28;20047;-70
2023/06/14 00:33:38;;;;;;;0.50;0.50;;;17.10;88.90;;;;;;5095037;28;20047;-70
2023/06/14 00:36:04;;;;;;;0.40;0.40;;;17.00;89.10;;;;;;5095339;28;20040;-70
2023/06/14 00:38:29;;;;;;;0.50;0.50;;;17.00;88.70;;;;;;5094982;28;20125;-70
2023/06/14 00:40:55;;;;;;;0.60;0.60;;;17.00;90.00;;;;;;5095104;28;20285;-69
2023/06/14 00:43:21;;;;;;;0.50;0.50;;;17.00;89.40;;;;;;5094948;28;20051;-70
2023/06/14 00:45:46;;;;;;;0.40;0.40;;;16.90;89.30;;;;;;5094719;28;20452;-71
2023/06/14 00:48:13;;;;;;;0.40;0.40;;;16.90;90.60;;;;;;5094824;28;20046;-69
2023/06/14 00:50:41;;;;;;;0.52;0.52;;;16.80;90.20;;;;;;5094672;28;20054;-70
2023/06/14 00:53:07;;;;;;;0.55;0.55;;;16.80;90.40;;;;;;5094632;28;20097;-69
2023/06/14 00:55:33;;;;;;;0.40;0.40;;;16.80;90.50;;;;;;5094665;28;20406;-69
2023/06/14 00:57:58;;;;;;;0.40;0.40;;;16.80;90.70;;;;;;5094509;28;20078;-68
2023/06/14 01:00:24;;;;;;;0.50;0.50;;;16.70;90.70;;;;;;5094456;28;20082;-69
2023/06/14 01:02:50;;;;;;;0.50;0.50;;;16.70;90.70;;;;;;5094448;28;20043;-69
2023/06/14 01:05:16;;;;;;;0.40;0.40;;;16.60;91.00;;;;;;5094419;28;20083;-69
2023/06/14 01:08:06;;;;;;;0.60;0.60;;;16.60;91.90;;;;;;5094368;28;20044;-69
2023/06/14 01:11:02;;;;;;;0.50;0.50;;;16.50;91.30;;;;;;5094339;28;20127;-70
2023/06/14 01:13:37;;;;;;;1.95;0.80;;;16.50;91.00;;;;;;5094823;28;20101;-69
2023/06/14 01:16:04;;;;;;;0.50;0.50;;;16.50;91.70;;;;;;5094212;28;20090;-70
2023/06/14 01:18:32;;;;;;;0.40;0.40;;;16.50;92.10;;;;;;5094307;28;20459;-69
2023/06/14 01:20:57;;;;;;;0.40;0.40;;;16.40;92.40;;;;;;5094151;28;20048;-69
2023/06/14 01:23:23;;;;;;;0.40;0.40;;;16.40;92.10;;;;;;5094129;28;20122;-69
2023/06/14 01:25:53;;;;;;;0.57;0.57;;;16.30;92.20;;;;;;5094135;28;20102;-70
2023/06/14 01:28:20;;;;;;;0.30;0.30;;;16.30;92.90;;;;;;5094497;28;20040;-69
2023/06/14 01:30:53;;;;;;;0.30;0.30;;;16.50;92.70;;;;;;5094065;28;20119;-69
2023/06/14 01:33:20;;;;;;;0.30;0.30;;;16.20;93.50;;;;;;5094087;28;20031;-69
2023/06/14 01:35:48;;;;;;;0.73;0.63;;;16.20;93.40;;;;;;5094127;28;20376;-69
2023/06/14 01:38:15;;;;;;;0.90;0.65;;;16.20;93.60;;;;;;5093786;28;20036;-70
2023/06/14 01:40:43;;;;;;;0.30;0.30;;;16.20;93.80;;;;;;5093912;28;20075;-69
2023/06/14 01:43:10;;;;;;;0.30;0.30;;;16.10;94.30;;;;;;5093923;28;20372;-69
2023/06/14 01:45:36;;;;;;;0.30;0.30;;;16.10;94.00;;;;;;5093861;28;20495;-69
2023/06/14 01:48:03;;;;;;;0.40;0.40;;;16.10;94.70;;;;;;5093875;28;20079;-69
2023/06/14 01:50:30;;;;;;;0.30;0.30;;;16.00;94.90;;;;;;5093859;28;20047;-70
2023/06/14 01:52:56;;;;;;;0.35;0.35;;;16.00;94.70;;;;;;5093820;28;20048;-69
2023/06/14 01:55:21;;;;;;;0.30;0.30;;;16.00;95.40;;;;;;5093829;28;20036;-70
2023/06/14 01:57:47;;;;;;;0.30;0.30;;;16.00;95.20;;;;;;5094228;28;20124;-69
2023/06/14 02:00:14;;;;;;;0.43;0.40;;;15.80;95.30;;;;;;5093997;28;20040;-69
2023/06/14 02:02:40;;;;;;;0.40;0.40;;;15.80;96.20;;;;;;5093679;28;20050;-69
2023/06/14 02:05:06;;;;;;;0.40;0.40;;;15.80;96.10;;;;;;5093930;28;20130;-69
2023/06/14 02:07:33;;;;;;;0.40;0.40;;;15.80;96.70;;;;;;5093633;28;20776;-70
2023/06/14 02:09:58;;;;;;;0.30;0.30;;;15.80;96.70;;;;;;5092484;28;20111;-69
2023/06/14 02:12:25;;;;;;;0.40;0.40;;;15.70;96.50;;;;;;5093643;28;20093;-69
2023/06/14 02:14:51;;;;;;;0.60;0.60;;;15.70;96.90;;;;;;5093593;28;20476;-69
2023/06/14 02:17:17;;;;;;;0.40;0.40;;;15.70;97.80;;;;;;5093450;28;20115;-69
2023/06/14 02:19:43;;;;;;;0.40;0.40;;;15.70;97.30;;;;;;5093631;28;20044;-69
2023/06/14 02:22:08;;;;;;;0.40;0.40;;;15.60;98.20;;;;;;5093512;28;20494;-69
2023/06/14 02:24:35;;;;;;;0.37;0.37;;;15.60;98.40;;;;;;5093556;28;20050;-69
2023/06/14 02:27:01;;;;;;;3.30;1.25;;;15.50;98.40;;;;;;5093275;28;20044;-69
2023/06/14 02:29:27;;;;;;;0.47;0.47;;;15.50;97.00;;;;;;5092286;28;20357;-70
2023/06/14 02:31:52;;;;;;;0.40;0.40;;;15.40;98.80;;;;;;5093634;28;20047;-70
2023/06/14 02:34:19;;;;;;;0.40;0.40;;;15.50;99.20;;;;;;5093640;28;20044;-70
2023/06/14 02:36:45;;;;;;;;;;;15.40;99.90;;;;;;5093687;28;20036;-69
2023/06/14 02:39:11;;;;;;;0.40;0.40;;;15.40;99.90;;;;;;5093399;28;20390;-69
2023/06/14 02:41:37;;;;;;;0.40;0.40;;;15.40;99.90;;;;;;5093372;28;20112;-69
2023/06/14 02:44:03;;;;;;;0.40;0.40;;;15.40;99.80;;;;;;5092493;28;20459;-69
2023/06/14 02:46:29;;;;;;;0.40;0.40;;;15.30;99.90;;;;;;5093376;28;20036;-70
2023/06/14 02:48:54;;;;;;;0.40;0.40;;;15.40;99.90;;;;;;5093445;28;20368;-70
2023/06/14 02:51:20;;;;;;;0.40;0.40;;;15.40;99.90;;;;;;5094809;28;20040;-69
2023/06/14 02:53:45;;;;;;;0.73;0.73;;;15.30;99.90;;;;;;5097425;28;20036;-70
2023/06/14 02:56:11;;;;;;;0.40;0.40;;;15.30;99.90;;;;;;5096830;28;20430;-69
2023/06/14 02:58:37;;;;;;;0.40;0.40;;;15.30;99.90;;;;;;5097180;28;20050;-70
2023/06/14 03:01:07;;;;;;;0.77;0.77;;;15.20;99.90;;;;;;5096798;28;20086;-69
2023/06/14 03:03:33;;;;;;;0.40;0.40;;;15.20;99.90;;;;;;5095558;28;20161;-69
2023/06/14 03:06:04;;;;;;;0.40;0.40;;;15.20;99.90;;;;;;5097451;28;20044;-69
2023/06/14 03:08:38;;;;;;;0.68;0.68;;;15.20;99.90;;;;;;5096717;28;20036;-69
2023/06/14 03:11:05;;;;;;;0.40;0.40;;;15.20;99.90;;;;;;5096976;28;20039;-69
2023/06/14 03:13:32;;;;;;;;;;;15.10;99.90;;;;;;5096924;28;20483;-69
2023/06/14 03:15:58;;;;;;;0.40;0.40;;;15.20;99.90;;;;;;5096790;28;19916;-69
2023/06/14 03:18:23;;;;;;;0.40;0.40;;;15.10;99.90;;;;;;5096446;28;20036;-69
2023/06/14 03:20:50;;;;;;;0.40;0.40;;;15.10;99.90;;;;;;5096529;28;20036;-70
2023/06/14 03:23:16;;;;;;;0.40;0.40;;;15.00;99.90;;;;;;5096861;28;20040;-69
2023/06/14 03:25:43;;;;;;;0.40;0.40;;;15.00;99.90;;;;;;5096399;28;20140;-69
2023/06/14 03:28:09;;;;;;;0.30;0.30;;;15.00;99.90;;;;;;5096373;28;20040;-69
2023/06/14 03:30:34;;;;;;;0.60;0.60;;;14.90;99.90;;;;;;5096313;28;20051;-70
2023/06/14 03:33:01;;;;;;;0.40;0.40;;;15.00;99.90;;;;;;5096162;28;20119;-69
2023/06/14 03:35:28;;;;;;;0.40;0.40;;;15.00;99.90;;;;;;5095979;28;20118;-69
2023/06/14 03:37:53;;;;;;;0.40;0.40;;;14.90;99.90;;;;;;5096111;28;20076;-69
2023/06/14 03:40:21;;;;;;;0.40;0.40;;;14.90;99.90;;;;;;5096142;28;20076;-69
2023/06/14 03:42:47;;;;;;;0.40;0.40;;;14.90;99.90;;;;;;5096299;28;20048;-69
2023/06/14 03:45:13;;;;;;;0.30;0.30;;;14.90;99.90;;;;;;5096122;28;20042;-70
2023/06/14 03:47:38;;;;;;;0.40;0.40;;;15.00;99.90;;;;;;5095998;28;20032;-69
2023/06/14 03:50:05;;;;;;;0.30;0.30;;;15.00;99.90;;;;;;5095661;28;20032;-69
2023/06/14 03:52:32;;;;;;;;;;;15.00;99.90;;;;;;5096280;28;20050;-69
2023/06/14 03:55:00;;;;;;;0.40;0.40;;;15.00;99.90;;;;;;5095905;28;19916;-70
2023/06/14 03:57:26;;;;;;;0.40;0.40;;;15.00;99.90;;;;;;5095909;28;20426;-70
2023/06/14 03:59:52;;;;;;;0.30;0.30;;;15.00;99.90;;;;;;5095843;28;20047;-69
2023/06/14 04:02:17;;;;;;;0.30;0.30;;;15.10;99.90;;;;;;5093423;28;20051;-70
2023/06/14 04:04:45;;;;;;;0.30;0.30;;;15.20;99.90;;;;;;5095407;28;20286;-70
2023/06/14 04:07:19;;;;;;;0.30;0.30;;;15.10;99.90;;;;;;5095566;28;20047;-69
2023/06/14 04:09:45;;;;;;;0.47;0.47;;;15.10;99.90;;;;;;5095425;28;20051;-70
2023/06/14 04:12:14;;;;;;;0.50;0.50;;;15.00;99.90;;;;;;5095535;28;20108;-69
2023/06/14 04:14:40;;;;;;;2.15;2.05;;;15.10;99.90;;;;;;5095497;28;20073;-70
2023/06/14 04:17:06;;;;;;;2.22;0.80;;;15.10;99.90;;;;;;5095188;28;20500;-70
2023/06/14 04:19:32;;;;;;;0.40;0.40;;;15.10;99.90;;;;;;5095774;28;20093;-70
2023/06/14 04:22:01;;;;;;;0.50;0.50;;;15.10;99.90;;;;;;5095314;28;20129;-70
2023/06/14 04:24:31;;;;;;;0.50;0.50;;;15.10;99.90;;;;;;5095452;28;20032;-69
2023/06/14 04:26:58;;;;;;;0.47;0.47;;;15.20;99.90;;;;;;5095269;28;20486;-69
2023/06/14 04:29:26;;;;;;;;;;;15.20;99.90;;;;;;5095520;28;20083;-69
2023/06/14 04:31:54;;;;;;;2.35;2.15;;;15.20;99.90;;;;;;5094823;28;20360;-70
2023/06/14 04:34:21;;;;;;;0.43;0.43;;;15.20;99.90;;;;;;5095020;28;20044;-70
2023/06/14 04:36:52;;;;;;;0.50;0.50;;;15.20;99.90;;;;;;5094885;28;20079;-70
2023/06/14 04:39:19;;;;;;;0.50;0.50;;;15.30;99.90;;;;;;5095001;28;20043;-69
2023/06/14 04:41:45;;;;;;;0.88;0.80;;;15.20;99.90;;;;;;5094909;28;20148;-70
2023/06/14 04:44:12;;;;;;;0.50;0.50;;;15.30;99.90;;;;;;5094820;28;20068;-69
2023/06/14 04:46:45;;;;;;;0.50;0.50;;;15.30;99.90;;;;;;5095044;28;20480;-68
2023/06/14 04:49:15;;;;;;;0.70;0.70;;;15.40;99.90;;;;;;5095057;28;20044;-69
2023/06/14 04:51:42;;;;;;;0.40;0.40;;;15.40;99.90;;;;;;5094696;28;20048;-70
2023/06/14 04:54:09;;;;;;;0.50;0.50;;;15.40;99.90;;;;;;5094613;28;20040;-69
2023/06/14 04:56:37;;;;;;;0.40;0.40;;;15.50;99.90;;;;;;5094478;28;20040;-69
2023/06/14 04:59:06;;;;;;;0.55;0.55;;;15.50;99.90;;;;;;5094623;28;20044;-69
2023/06/14 05:01:32;;;;;;;0.45;0.45;;;15.50;99.90;;;;;;5094888;28;20047;-69
2023/06/14 05:03:59;;;;;;;0.50;0.50;;;15.50;99.90;;;;;;5094473;28;20040;-68
2023/06/14 05:06:26;;;;;;;0.60;0.60;;;15.60;99.90;;;;;;5094381;28;20055;-69
2023/06/14 05:08:51;;;;;;;;;;;15.60;99.90;;;;;;5094775;28;20372;-69
2023/06/14 05:11:17;;;;;;;0.40;0.40;;;15.70;99.90;;;;;;5094320;28;19923;-69
2023/06/14 05:13:44;;;;;;;0.47;0.47;;;15.70;99.90;;;;;;5094034;28;20036;-69
2023/06/14 05:16:11;;;;;;;;;;;15.80;99.90;;;;;;5095124;28;20043;-69
2023/06/14 05:18:37;;;;;;;0.50;0.50;;;15.80;99.90;;;;;;5094421;28;20306;-70
2023/06/14 05:21:04;;;;;;;0.45;0.45;;;15.90;99.90;;;;;;5094259;28;20040;-69
2023/06/14 05:23:30;;;;;;;1.75;1.35;;;15.90;99.90;;;;;;5094228;28;20050;-70
2023/06/14 05:25:56;;;;;;;0.50;0.50;;;16.20;99.90;;;;;;5094062;28;20130;-69
2023/06/14 05:28:22;;;;;;;0.70;0.70;;;16.50;99.90;;;;;;5094300;28;20472;-70
2023/06/14 05:30:48;;;;;;;0.77;0.77;;;16.80;99.90;;;;;;5094142;28;20530;-70
2023/06/14 05:33:13;;;;;;;0.40;0.40;;;17.20;99.90;;;;;;5094016;28;20099;-69
2023/06/14 05:35:39;;;;;;;0.30;0.30;;;17.60;99.90;;;;;;5094038;28;20040;-70
2023/06/14 05:38:05;;;;;;;0.50;0.50;;;18.00;99.90;;;;;;5093934;28;20072;-70
2023/06/14 05:40:31;;;;;;;0.32;0.32;;;18.30;99.90;;;;;;5093927;28;20076;-70
2023/06/14 05:42:56;;;;;;;0.57;0.57;;;18.70;99.90;;;;;;5093960;28;20509;-69
2023/06/14 05:45:22;;;;;;;0.40;0.40;;;19.10;99.90;;;;;;5093928;28;20043;-69
2023/06/14 05:47:48;;;;;;;0.40;0.40;;;19.30;99.80;;;;;;5093817;28;20112;-69
2023/06/14 05:50:13;;;;;;;0.30;0.30;;;19.60;99.00;;;;;;5093873;28;20464;-70
2023/06/14 05:52:39;;;;;;;0.40;0.40;;;19.80;97.70;;;;;;5092817;28;20043;-69
2023/06/14 05:55:05;;;;;;;0.37;0.37;;;20.10;98.10;;;;;;5093939;28;20092;-70
2023/06/14 05:57:31;;;;;;;0.40;0.40;;;20.30;96.90;;;;;;5092542;28;20123;-69
2023/06/14 05:59:57;;;;;;;0.30;0.30;;;20.50;96.90;;;;;;5093791;28;20500;-70
2023/06/14 06:02:22;;;;;;;0.30;0.30;;;20.70;96.40;;;;;;5093810;28;20040;-69
2023/06/14 06:04:48;;;;;;;0.30;0.30;;;20.80;96.20;;;;;;5093551;28;20063;-70
2023/06/14 06:07:13;;;;;;;0.30;0.30;;;20.90;95.50;;;;;;5093918;28;20378;-70
2023/06/14 06:09:39;;;;;;;0.30;0.30;;;21.10;95.90;;;;;;5093447;28;20543;-70
2023/06/14 06:12:10;;;;;;;0.50;0.50;;;21.40;94.40;;;;;;5093613;28;20044;-70
2023/06/14 06:14:36;;;;;;;0.50;0.50;;;21.30;94.70;;;;;;5094106;28;20479;-70
2023/06/14 06:17:02;;;;;;;0.30;0.30;;;21.40;93.90;;;;;;5093620;28;20035;-70
2023/06/14 06:19:27;;;;;;;0.30;0.30;;;21.40;94.50;;;;;;5093566;28;20048;-70
2023/06/14 06:21:53;;;;;;;0.27;0.27;;;21.60;94.00;;;;;;5093526;28;20032;-70
2023/06/14 06:24:18;;;;;;;0.30;0.30;;;21.60;93.90;;;;;;5093474;28;20047;-69
2023/06/14 06:26:44;;;;;;;0.30;0.30;;;21.60;93.30;;;;;;5095781;28;20524;-70
2023/06/14 06:29:10;;;;;;;0.40;0.40;;;21.60;93.20;;;;;;5098257;28;20040;-70
2023/06/14 06:31:35;;;;;;;0.30;0.30;;;21.80;93.10;;;;;;5097858;28;20067;-70
2023/06/14 06:34:01;;;;;;;0.20;0.20;;;21.70;93.70;;;;;;5097716;28;20165;-70
2023/06/14 06:36:27;;;;;;;0.30;0.30;;;21.80;93.30;;;;;;5096132;28;20044;-70
2023/06/14 06:38:52;;;;;;;0.30;0.30;;;21.60;93.20;;;;;;5097266;28;20047;-69
2023/06/14 06:41:18;;;;;;;0.70;0.70;;;21.60;93.00;;;;;;5096309;28;20035;-69
2023/06/14 06:43:44;;;;;;;0.30;0.30;;;21.70;93.00;;;;;;5097189;28;20050;-69
2023/06/14 06:46:10;;;;;;;0.30;0.30;;;21.50;92.70;;;;;;5097529;28;20464;-70
2023/06/14 06:48:35;;;;;;;0.30;0.30;;;21.50;93.00;;;;;;5097374;28;20042;-70
2023/06/14 06:51:01;;;;;;;0.40;0.40;;;21.50;93.20;;;;;;5097115;28;20082;-69
2023/06/14 06:53:26;;;;;;;0.50;0.50;;;21.50;92.50;;;;;;5096086;28;20130;-69
2023/06/14 06:55:52;;;;;;;0.30;0.30;;;21.50;92.50;;;;;;5096851;28;20122;-69
2023/06/14 06:58:17;;;;;;;0.33;0.33;;;21.60;92.30;;;;;;5096974;28;20089;-70
2023/06/14 07:00:43;;;;;;;0.30;0.30;;;21.70;92.30;;;;;;5097075;28;20556;-69
2023/06/14 07:03:09;;;;;;;0.40;0.40;;;21.90;92.70;;;;;;5096910;28;20039;-70
2023/06/14 07:05:34;;;;;;;1.17;1.07;;;21.90;92.50;;;;;;5096977;28;20126;-70
2023/06/14 07:08:00;;;;;;;0.30;0.30;;;22.00;91.90;;;;;;5097086;28;20521;-70
2023/06/14 07:10:26;;;;;;;0.30;0.30;;;22.00;92.10;;;;;;5096629;28;20036;-70
2023/06/14 07:12:51;;;;;;;0.30;0.30;;;22.00;91.60;;;;;;5097127;28;20044;-70
2023/06/14 07:15:17;;;;;;;0.30;0.30;;;22.10;91.70;;;;;;5096554;28;20372;-69
2023/06/14 07:17:43;;;;;;;0.40;0.40;;;21.90;91.90;;;;;;5096529;28;20089;-70
2023/06/14 07:20:11;;;;;;;0.30;0.30;;;22.00;91.80;;;;;;5096600;28;20149;-69
2023/06/14 07:22:40;;;;;;;0.40;0.40;;;22.00;91.40;;;;;;5096370;28;20468;-69
2023/06/14 07:25:08;;;;;;;0.30;0.30;;;22.10;91.30;;;;;;5096121;28;20498;-70
2023/06/14 07:27:33;;;;;;;0.57;0.45;;;22.20;91.60;;;;;;5112926;28;20043;-70
2023/06/14 07:29:59;;;;;;;0.30;0.30;;;22.40;91.00;;;;;;5096385;28;20035;-69
2023/06/14 07:32:25;;;;;;;0.80;0.80;;;22.50;90.30;;;;;;5096801;28;20123;-69
2023/06/14 07:34:50;;;;;;;0.40;0.40;;;22.50;90.50;;;;;;5096274;28;20502;-70
2023/06/14 07:37:16;;;;;;;0.50;0.50;;;22.60;90.30;;;;;;5096188;28;20032;-70
2023/06/14 07:39:41;;;;;;;0.30;0.30;;;22.50;90.00;;;;;;5096175;28;20043;-70
2023/06/14 07:42:07;;;;;;;0.40;0.40;;;22.60;89.20;;;;;;5096071;28;20063;-70
2023/06/14 07:44:33;;;;;;;0.50;0.50;;;22.70;89.60;;;;;;5096007;28;20050;-70
2023/06/14 07:46:59;;;;;;;0.23;0.23;;;22.80;89.50;;;;;;5096078;28;20043;-69
2023/06/14 07:49:25;;;;;;;;;;;22.70;87.70;;;;;;5096418;28;20044;-69
2023/06/14 07:51:51;;;;;;;0.30;0.30;;;22.60;88.50;;;;;;5095960;28;20014;-70
2023/06/14 07:54:17;;;;;;;0.30;0.30;;;22.70;89.30;;;;;;5095963;28;20043;-70
2023/06/14 07:56:42;;;;;;;0.30;0.30;;;23.00;88.20;;;;;;5095518;28;20131;-70
2023/06/14 07:59:08;;;;;;;2.93;1.80;;;23.00;85.60;;;;;;5094858;28;20078;-70
2023/06/14 08:01:34;;;;;;;0.30;0.30;;;23.00;86.10;;;;;;5095801;28;20044;-70
2023/06/14 08:04:00;;;;;;;0.30;0.30;;;23.10;86.40;;;;;;5095739;28;20122;-69
2023/06/14 08:06:26;;;;;;;0.30;0.30;;;23.10;86.10;;;;;;5095389;28;20522;-70
2023/06/14 08:08:52;;;;;;;0.30;0.30;;;23.10;85.10;;;;;;5095669;28;20079;-70
2023/06/14 08:11:18;;;;;;;0.30;0.30;;;23.10;85.80;;;;;;5095443;28;20126;-70
2023/06/14 08:13:43;;;;;;;0.50;0.50;;;23.20;85.60;;;;;;5096178;28;20074;-70
2023/06/14 08:16:09;;;;;;;0.93;0.93;;;23.30;84.40;;;;;;5095810;28;20040;-70
2023/06/14 08:18:35;;;;;;;0.40;0.40;;;23.40;85.80;;;;;;5095330;28;20092;-69
2023/06/14 08:21:00;;;;;;;0.30;0.30;;;23.50;84.60;;;;;;5094173;28;20051;-69
2023/06/14 08:23:26;;;;;;;0.20;0.20;;;23.60;83.30;;;;;;5095038;28;20174;-69
2023/06/14 08:25:52;;;;;;;0.20;0.20;;;23.70;82.30;;;;;;5095265;28;20047;-70
2023/06/14 08:28:18;;;;;;;0.30;0.30;;;23.60;81.80;;;;;;5095312;28;20043;-69
2023/06/14 08:30:43;;;;;;;0.23;0.23;;;23.60;82.80;;;;;;5095492;28;20036;-70
2023/06/14 08:33:09;;;;;;;0.30;0.30;;;23.70;83.60;;;;;;5095423;28;20079;-70
2023/06/14 08:35:37;;;;;;;1.70;1.60;;;23.90;83.60;;;;;;5095089;28;20479;-70
2023/06/14 08:38:03;;;;;;;0.30;0.30;;;23.90;83.50;;;;;;5095259;28;20115;-69
2023/06/14 08:40:30;;;;;;;;;;;24.00;82.60;;;;;;5095384;28;20044;-70
2023/06/14 08:42:56;;;;;;;0.30;0.30;;;24.20;81.30;;;;;;5094910;28;19916;-70
2023/06/14 08:45:23;;;;;;;0.30;0.30;;;24.20;83.20;;;;;;5094869;28;20043;-70
2023/06/14 08:47:57;;;;;;;0.30;0.30;;;24.30;81.10;;;;;;5094858;28;20040;-71
2023/06/14 08:50:26;;;;;;;1.45;0.95;;;24.40;82.00;;;;;;5094488;28;20422;-70
2023/06/14 08:52:57;;;;;;;0.30;0.30;;;24.40;81.60;;;;;;5094771;28;20537;-70
2023/06/14 08:55:26;;;;;;;0.30;0.30;;;24.40;79.60;;;;;;5094786;28;20086;-69
2023/06/14 08:57:54;;;;;;;0.30;0.30;;;24.40;80.00;;;;;;5094560;28;20039;-70
2023/06/14 09:00:21;;;;;;;0.20;0.20;;;24.60;80.30;;;;;;5094667;28;20040;-70
2023/06/14 09:02:46;;;;;;;0.30;0.30;;;24.60;79.70;;;;;;5093657;28;20081;-70
2023/06/14 09:05:18;;;;;;;0.30;0.30;;;24.60;80.10;;;;;;5093490;28;20044;-70
2023/06/14 09:07:44;;;;;;;0.32;0.32;;;24.60;78.70;;;;;;5094287;28;20488;-70
2023/06/14 09:10:13;;;;;;;0.20;0.20;;;24.50;78.60;;;;;;5093725;28;20068;-70
2023/06/14 09:12:39;;;;;;;0.25;0.25;;;24.60;79.50;;;;;;5094692;28;20468;-70
2023/06/14 09:15:08;;;;;;;3.75;0.77;;;24.60;78.50;;;;;;5093210;28;20081;-69
2023/06/14 09:17:36;;;;;;;0.30;0.30;;;24.70;78.90;;;;;;5093912;28;20032;-70
2023/06/14 09:20:10;;;;;;;0.20;0.20;;;24.80;79.90;;;;;;5094201;28;20036;-70
2023/06/14 09:22:37;;;;;;;0.30;0.30;;;25.00;79.50;;;;;;5094259;28;20036;-69
2023/06/14 09:25:04;;;;;;;0.30;0.30;;;25.10;78.20;;;;;;5094252;28;20040;-70
2023/06/14 09:27:30;;;;;;;0.40;0.40;;;25.20;77.50;;;;;;5094179;28;20076;-70
2023/06/14 09:29:55;;;;;;;0.20;0.20;;;25.10;75.70;;;;;;5094047;28;20532;-70
2023/06/14 09:32:22;;;;;;;0.30;0.30;;;24.90;76.20;;;;;;5094060;28;20054;-70
2023/06/14 09:34:47;;;;;;;0.35;0.35;;;25.00;77.20;;;;;;5094037;28;20097;-71
2023/06/14 09:37:25;;;;;;;0.30;0.30;;;25.20;77.80;;;;;;5093932;28;20044;-70
2023/06/14 09:39:51;;;;;;;0.30;0.30;;;25.30;76.00;;;;;;5093136;28;20052;-70
2023/06/14 09:42:19;;;;;;;0.30;0.30;;;25.20;74.80;;;;;;5094006;28;20036;-70
2023/06/14 09:44:49;;;;;;;0.30;0.30;;;25.20;74.60;;;;;;5093904;28;20455;-71
2023/06/14 09:47:15;;;;;;;0.20;0.20;;;25.10;74.60;;;;;;5093937;28;20043;-70
2023/06/14 09:49:42;;;;;;;0.30;0.30;;;25.40;75.70;;;;;;5093639;28;20487;-70
2023/06/14 09:52:11;;;;;;;0.20;0.20;;;25.40;74.10;;;;;;5093897;28;20036;-70
2023/06/14 09:54:42;;;;;;;0.20;0.20;;;25.30;74.10;;;;;;5093846;28;20131;-70
2023/06/14 09:57:13;;;;;;;0.20;0.20;;;25.40;75.60;;;;;;5094437;28;20113;-70
2023/06/14 09:59:42;;;;;;;0.20;0.20;;;25.40;74.20;;;;;;5093760;28;20043;-70
2023/06/14 10:02:26;;;;;;;0.30;0.30;;;25.40;75.50;;;;;;5096944;28;20051;-70
2023/06/14 10:05:06;;;;;;;0.20;0.20;;;25.50;75.40;;;;;;5098404;28;20380;-71
2023/06/14 10:07:55;;;;;;;0.20;0.20;;;25.50;75.30;;;;;;5097074;28;20427;-69
2023/06/14 10:10:21;;;;;;;0.20;0.20;;;25.50;74.30;;;;;;5097788;28;20040;-70
2023/06/14 10:12:48;;;;;;;0.30;0.30;;;25.50;74.90;;;;;;5097869;28;20039;-70
2023/06/14 10:15:22;;;;;;;0.50;0.50;;;25.70;74.30;;;;;;5098561;28;20388;-69
2023/06/14 10:17:55;;;;;;;0.20;0.20;;;25.60;75.00;;;;;;5097718;28;20472;-71
2023/06/14 10:20:45;;;;;;;0.30;0.30;;;25.70;74.90;;;;;;5097924;28;20055;-70
2023/06/14 10:23:21;;;;;;;0.20;0.20;;;25.80;74.10;;;;;;5097842;28;20044;-71
2023/06/14 10:25:50;;;;;;;0.20;0.20;;;25.60;73.10;;;;;;5097031;28;20127;-70
2023/06/14 10:28:18;;;;;;;0.60;0.60;;;25.60;73.20;;;;;;5097487;28;20537;-70
2023/06/14 10:31:07;;;;;;;0.20;0.20;;;25.70;74.10;;;;;;5097552;28;20075;-71
2023/06/14 10:33:52;;;;;;;0.20;0.20;;;25.70;74.00;;;;;;5097495;28;20044;-71
2023/06/14 10:36:30;;;;;;;0.20;0.20;;;25.40;74.70;;;;;;5097504;28;20095;-69
2023/06/14 10:39:10;;;;;;;0.22;0.22;;;25.50;75.30;;;;;;5097419;28;20122;-69
2023/06/14 10:41:37;;;;;;;0.30;0.30;;;25.40;73.00;;;;;;5097251;28;20036;-70
2023/06/14 10:44:12;;;;;;;0.20;0.20;;;25.40;75.60;;;;;;5097218;28;20388;-70
2023/06/14 10:46:39;;;;;;;0.20;0.20;;;25.40;74.70;;;;;;5097144;28;20040;-70
2023/06/14 10:49:06;;;;;;;;;;;25.40;74.90;;;;;;5097848;28;20040;-70
2023/06/14 10:51:46;;;;;;;0.20;0.20;;;25.40;74.10;;;;;;5097146;28;19920;-70
2023/06/14 10:54:16;;;;;;;0.30;0.30;;;25.60;74.20;;;;;;5097074;28;20419;-71
2023/06/14 10:56:54;;;;;;;0.40;0.40;;;25.60;74.80;;;;;;5097352;28;20039;-70
2023/06/14 10:59:21;;;;;;;0.20;0.20;;;25.80;76.40;;;;;;5097305;28;20070;-70
2023/06/14 11:02:09;;;;;;;0.30;0.30;;;25.90;73.50;;;;;;5096927;28;20040;-70
2023/06/14 11:04:47;;;;;;;0.20;0.20;;;26.00;74.50;;;;;;5096594;28;20087;-70
2023/06/14 11:07:48;;;;;;;0.40;0.40;;;25.90;73.00;;;;;;5097020;28;20131;-70
2023/06/14 11:10:36;;;;;;;0.20;0.20;;;25.90;74.10;;;;;;5096645;28;20040;-71
2023/06/14 11:13:02;;;;;;;0.20;0.20;;;26.10;73.60;;;;;;5096220;28;20043;-69
2023/06/14 11:15:30;;;;;;;0.20;0.20;;;26.10;74.30;;;;;;5096717;28;20093;-70
2023/06/14 11:17:57;;;;;;;0.43;0.43;;;26.20;74.30;;;;;;5096529;28;20044;-70
2023/06/14 11:20:25;;;;;;;0.20;0.20;;;26.30;74.00;;;;;;5096565;28;20044;-71
2023/06/14 11:22:53;;;;;;;0.30;0.30;;;26.50;74.10;;;;;;5096523;28;20086;-70
2023/06/14 11:25:18;;;;;;;0.30;0.30;;;26.50;73.10;;;;;;5096556;28;20040;-70
2023/06/14 11:27:45;;;;;;;0.37;0.37;;;26.50;72.20;;;;;;5096239;28;20349;-70
2023/06/14 11:30:11;;;;;;;0.20;0.20;;;26.20;73.30;;;;;;5096096;28;20032;-70
2023/06/14 11:32:40;;;;;;;0.30;0.30;;;26.20;73.50;;;;;;5096277;28;20039;-70
2023/06/14 11:35:07;;;;;;;0.20;0.20;;;26.20;74.40;;;;;;5096268;28;20043;-70
2023/06/14 11:37:33;;;;;;;0.30;0.30;;;26.40;74.50;;;;;;5096315;28;20044;-70
2023/06/14 11:40:08;;;;;;;0.30;0.30;;;26.20;75.20;;;;;;5096357;28;20482;-70
2023/06/14 11:42:34;;;;;;;0.30;0.30;;;26.30;73.70;;;;;;5097000;28;20072;-70
2023/06/14 11:45:01;;;;;;;;;;;26.20;74.20;;;;;;5096551;28;20565;-70
2023/06/14 11:47:38;;;;;;;0.20;0.20;;;26.40;74.60;;;;;;5096401;28;19916;-70
2023/06/14 11:50:06;;;;;;;0.30;0.30;;;26.50;74.40;;;;;;5095083;28;20125;-70
2023/06/14 11:52:32;;;;;;;0.40;0.40;;;26.50;75.20;;;;;;5095672;28;20036;-71
2023/06/14 11:54:58;;;;;;;0.30;0.30;;;26.50;74.20;;;;;;5095558;28;20067;-70
2023/06/14 11:57:25;;;;;;;0.20;0.20;;;26.40;73.60;;;;;;5095761;28;20089;-70
2023/06/14 11:59:51;;;;;;;0.20;0.20;;;26.60;75.80;;;;;;5095931;28;20602;-69
2023/06/14 12:02:19;;;;;;;0.20;0.20;;;26.60;74.10;;;;;;5095738;28;20043;-70
2023/06/14 12:04:48;;;;;;;0.45;0.40;;;26.70;73.40;;;;;;5095426;28;20055;-70
2023/06/14 12:07:19;;;;;;;0.30;0.30;;;26.70;73.90;;;;;;5095621;28;20125;-70
2023/06/14 12:09:54;;;;;;;0.25;0.25;;;26.70;73.20;;;;;;5096066;28;20384;-70
2023/06/14 12:12:26;;;;;;;0.47;0.47;;;26.80;74.40;;;;;;5095529;28;20036;-70
2023/06/14 12:14:52;;;;;;;0.40;0.40;;;26.70;73.80;;;;;;5095471;28;20062;-70
2023/06/14 12:17:19;;;;;;;3.83;0.30;;;26.70;73.80;;;;;;5095188;28;20040;-70
2023/06/14 12:19:49;;;;;;;1.30;1.10;;;26.70;73.60;;;;;;5095383;28;20101;-70
2023/06/14 12:22:16;;;;;;;0.20;0.20;;;26.80;74.90;;;;;;5095375;28;20040;-69
2023/06/14 12:24:46;;;;;;;0.20;0.20;;;26.90;74.00;;;;;;5094436;28;20051;-69
2023/06/14 12:27:15;;;;;;;0.20;0.20;;;27.00;74.80;;;;;;5095222;28;20044;-70
2023/06/14 12:29:44;;;;;;;0.30;0.30;;;27.10;74.20;;;;;;5095065;28;20046;-71
2023/06/14 12:32:10;;;;;;;0.20;0.20;;;26.90;73.80;;;;;;5095141;28;20043;-70
2023/06/14 12:34:36;;;;;;;0.30;0.30;;;27.10;76.60;;;;;;5094800;28;20484;-70
2023/06/14 12:37:03;;;;;;;0.20;0.20;;;27.30;75.00;;;;;;5095061;28;20074;-71
2023/06/14 12:39:31;;;;;;;0.20;0.20;;;27.40;75.20;;;;;;5095313;28;20044;-70
2023/06/14 12:41:57;;;;;;;0.30;0.30;;;27.40;74.00;;;;;;5094848;28;20480;-70
2023/06/14 12:44:23;;;;;;;0.32;0.32;;;27.50;73.70;;;;;;5095189;28;20090;-70
2023/06/14 12:46:51;;;;;;;0.40;0.40;;;27.50;73.90;;;;;;5094892;28;20464;-69
2023/06/14 12:49:17;;;;;;;0.20;0.20;;;27.50;73.90;;;;;;5094724;28;20048;-70
2023/06/14 12:51:42;;;;;;;0.20;0.20;;;27.40;72.60;;;;;;5094794;28;20047;-70
2023/06/14 12:54:08;;;;;;;0.30;0.30;;;27.30;73.80;;;;;;5093476;28;20399;-70